Terminal Aerodrome Forecast
Issued by NWS Wilmington, OH

Current Version | Previous Version | Graphics & Text | Print | Product List | Glossary On
Versions: 1 2 3 4 5 6 7 8 9 10 11 12 13 14 15 16 17 18 19 20 21
000
FTUS41 KILN 011400 AAA
TAFILN
TAF AMD
KILN 011459Z 0115/0212 21011KT P6SM SKC
     FM020200 14007KT P6SM BKN250
     FM021100 18012KT P6SM BKN080=

USA.gov is the U.S. government's official web portal to all federal, state and local government web resources and services.